Time;durP1;ratioP1;P1;durP2;ratioP2;P2;SDS_P1;SDS_P2;PMS_P1;PMS_P2;Temp;Humidity;BMP_temperature;BMP_pressure;BME280_temperature;BME280_humidity;BME280_pressure;Samples;Min_cycle;Max_cycle;Signal;HPM_P1;HPM_P2
2022/05/13 00:00:28;;;;;;;4.63;3.00;;;;;;;;;;2074576;28;20175;-56
2022/05/13 00:01:29;;;;;;;3.78;3.47;;;;;;;;;;2073747;28;20165;-50
2022/05/13 00:02:29;;;;;;;3.78;3.40;;;;;;;;;;2082982;28;20176;-51
2022/05/13 00:03:29;;;;;;;3.28;2.92;;;;;;;;;;2083401;28;20218;-52
2022/05/13 00:04:30;;;;;;;3.90;2.95;;;;;;;;;;2065983;28;20273;-49
2022/05/13 00:05:30;;;;;;;3.53;2.75;;;;;;;;;;2067208;28;20216;-50
2022/05/13 00:06:31;;;;;;;8.23;3.58;;;;;;;;;;2082321;28;20216;-50
2022/05/13 00:07:31;;;;;;;3.75;2.80;;;;;;;;;;2074508;28;20194;-50
2022/05/13 00:08:33;;;;;;;4.18;3.20;;;;;;;;;;2082021;28;20183;-50
2022/05/13 00:10:52;;;;;;;3.25;2.97;;;;;;;;;;2068017;28;20201;-50
2022/05/13 00:11:52;;;;;;;5.03;3.20;;;;;;;;;;2066372;28;20165;-49
2022/05/13 00:12:53;;;;;;;4.40;3.03;;;;;;;;;;2074852;28;20598;-50
2022/05/13 00:13:53;;;;;;;4.63;3.22;;;;;;;;;;2074672;28;20549;-50
2022/05/13 00:14:54;;;;;;;4.72;2.95;;;;;;;;;;2074493;28;20197;-49
2022/05/13 00:15:55;;;;;;;4.72;3.13;;;;;;;;;;2066212;28;20265;-51
2022/05/13 00:16:55;;;;;;;4.75;2.85;;;;;;;;;;2065894;28;20165;-49
2022/05/13 00:17:56;;;;;;;5.32;3.15;;;;;;;;;;2081775;28;20634;-52
2022/05/13 00:18:56;;;;;;;4.47;3.00;;;;;;;;;;2083028;28;20549;-51
2022/05/13 00:19:57;;;;;;;3.25;2.95;;;;;;;;;;2083180;28;20173;-51
2022/05/13 00:20:58;;;;;;;3.28;2.70;;;;;;;;;;2073669;28;20215;-49
2022/05/13 00:21:58;;;;;;;4.95;2.95;;;;;;;;;;2077694;28;20172;-49
2022/05/13 00:22:58;;;;;;;4.78;3.13;;;;;;;;;;2078987;28;20591;-49
2022/05/13 00:23:59;;;;;;;5.35;3.10;;;;;;;;;;2082666;28;20317;-49
2022/05/13 00:24:59;;;;;;;4.95;2.95;;;;;;;;;;2083191;28;20279;-49
2022/05/13 00:25:59;;;;;;;4.95;3.38;;;;;;;;;;2079436;28;20172;-52
2022/05/13 00:27:00;;;;;;;4.55;2.83;;;;;;;;;;2082548;28;20164;-50
2022/05/13 00:28:00;;;;;;;4.35;3.22;;;;;;;;;;2065693;28;20592;-51
2022/05/13 00:29:01;;;;;;;6.28;3.10;;;;;;;;;;2066550;28;20177;-52
2022/05/13 00:30:02;;;;;;;5.88;3.47;;;;;;;;;;2075262;28;20254;-50
2022/05/13 00:31:04;;;;;;;4.43;3.33;;;;;;;;;;2074918;28;20176;-49
2022/05/13 00:32:05;;;;;;;4.30;3.38;;;;;;;;;;2066622;28;20208;-52
2022/05/13 00:33:06;;;;;;;3.30;2.88;;;;;;;;;;2066555;28;20174;-51
2022/05/13 00:34:06;;;;;;;5.90;3.33;;;;;;;;;;2074758;28;20727;-50
2022/05/13 00:35:07;;;;;;;4.65;3.10;;;;;;;;;;2074733;28;20180;-51
2022/05/13 00:36:07;;;;;;;5.18;3.20;;;;;;;;;;2074823;28;20573;-57
2022/05/13 00:37:08;;;;;;;4.35;3.13;;;;;;;;;;2075668;28;20250;-53
2022/05/13 00:38:08;;;;;;;5.35;3.33;;;;;;;;;;2082000;28;20203;-51
2022/05/13 00:39:09;;;;;;;7.93;3.63;;;;;;;;;;2083353;28;20589;-50
2022/05/13 00:40:10;;;;;;;4.35;3.15;;;;;;;;;;2082972;28;20180;-51
2022/05/13 00:41:10;;;;;;;4.55;3.20;;;;;;;;;;2083026;28;20256;-50
2022/05/13 00:42:14;;;;;;;3.38;2.90;;;;;;;;;;2082996;28;20548;-49
2022/05/13 00:43:34;;;;;;;2.88;2.60;;;;;;;;;;2083580;28;20169;-51
2022/05/13 00:44:36;;;;;;;4.22;2.90;;;;;;;;;;2083990;28;20229;-52
2022/05/13 00:45:37;;;;;;;3.08;2.88;;;;;;;;;;2083899;28;20187;-53
2022/05/13 00:46:38;;;;;;;3.67;2.70;;;;;;;;;;2075270;28;20674;-54
2022/05/13 00:47:39;;;;;;;4.85;2.63;;;;;;;;;;2090149;22;20540;-55
2022/05/13 00:48:39;;;;;;;5.40;2.78;;;;;;;;;;2090198;28;20233;-57
2022/05/13 00:49:39;;;;;;;5.35;3.10;;;;;;;;;;2089971;28;20179;-55
2022/05/13 00:50:40;;;;;;;3.47;3.13;;;;;;;;;;2090898;28;20159;-51
2022/05/13 00:51:45;;;;;;;3.00;2.80;;;;;;;;;;2090576;28;20243;-56
2022/05/13 00:52:48;;;;;;;5.80;3.03;;;;;;;;;;2091090;28;20588;-54
2022/05/13 00:53:48;;;;;;;4.65;2.63;;;;;;;;;;2090179;28;20203;-58
2022/05/13 00:54:49;;;;;;;3.63;2.92;;;;;;;;;;2090187;28;20172;-55
2022/05/13 00:55:49;;;;;;;4.38;2.70;;;;;;;;;;2091687;28;20164;-53
2022/05/13 00:56:49;;;;;;;4.47;2.92;;;;;;;;;;2091375;28;20659;-56
2022/05/13 00:57:50;;;;;;;4.18;3.05;;;;;;;;;;2085650;28;20193;-59
2022/05/13 00:58:53;;;;;;;5.45;3.25;;;;;;;;;;2091429;28;20171;-58
2022/05/13 00:59:54;;;;;;;3.78;3.08;;;;;;;;;;2092657;28;20183;-55
2022/05/13 01:00:54;;;;;;;6.63;2.90;;;;;;;;;;2092095;28;20167;-56
2022/05/13 01:01:55;;;;;;;5.38;3.28;;;;;;;;;;2089217;28;20271;-53
2022/05/13 01:02:55;;;;;;;4.72;3.05;;;;;;;;;;2083962;28;20168;-58
2022/05/13 01:04:01;;;;;;;4.45;3.08;;;;;;;;;;2083198;28;20199;-54
2022/05/13 01:05:05;;;;;;;5.20;3.17;;;;;;;;;;2088940;28;20214;-56
2022/05/13 01:06:10;;;;;;;7.00;3.38;;;;;;;;;;2092600;28;20202;-59
2022/05/13 01:07:16;;;;;;;4.75;3.17;;;;;;;;;;2090160;28;20706;-59
2022/05/13 01:08:17;;;;;;;4.63;2.90;;;;;;;;;;2083416;28;20223;-55
2022/05/13 01:09:19;;;;;;;3.17;2.60;;;;;;;;;;2083802;28;20164;-56
2022/05/13 01:10:21;;;;;;;2.88;2.67;;;;;;;;;;2083029;28;20242;-53
2022/05/13 01:11:24;;;;;;;3.22;2.97;;;;;;;;;;2083453;28;20184;-55
2022/05/13 01:12:29;;;;;;;4.80;2.55;;;;;;;;;;2083431;28;20271;-57
2022/05/13 01:13:31;;;;;;;3.83;2.45;;;;;;;;;;2082875;28;20152;-57
2022/05/13 01:14:35;;;;;;;4.90;2.80;;;;;;;;;;2083086;28;20218;-59
2022/05/13 01:15:37;;;;;;;3.47;3.10;;;;;;;;;;2083532;28;20172;-54
2022/05/13 01:18:07;;;;;;;4.07;2.72;;;;;;;;;;2088979;28;20269;-55
2022/05/13 01:19:08;;;;;;;3.25;2.85;;;;;;;;;;2084573;28;20172;-57
2022/05/13 01:20:10;;;;;;;3.88;3.00;;;;;;;;;;2082676;28;20172;-56
2022/05/13 01:21:18;;;;;;;4.88;3.22;;;;;;;;;;2082114;28;20207;-55
2022/05/13 01:22:18;;;;;;;3.28;2.97;;;;;;;;;;2088937;28;20176;-55
2022/05/13 01:23:20;;;;;;;3.00;2.80;;;;;;;;;;2090401;28;20522;-57
2022/05/13 01:24:20;;;;;;;2.85;2.65;;;;;;;;;;2088380;28;20275;-57
2022/05/13 01:25:24;;;;;;;3.05;2.85;;;;;;;;;;2090315;28;20175;-55
2022/05/13 01:26:26;;;;;;;2.92;2.72;;;;;;;;;;2090609;28;20254;-56
2022/05/13 01:27:27;;;;;;;4.63;3.10;;;;;;;;;;2089162;28;20204;-56
2022/05/13 01:28:29;;;;;;;5.82;2.90;;;;;;;;;;2090012;28;20297;-59
2022/05/13 01:29:29;;;;;;;3.15;2.88;;;;;;;;;;2082350;28;20260;-55
2022/05/13 01:30:30;;;;;;;5.97;3.10;;;;;;;;;;2082144;28;20172;-54
2022/05/13 01:31:31;;;;;;;3.90;2.67;;;;;;;;;;2081992;28;20164;-53
2022/05/13 01:32:32;;;;;;;4.57;3.17;;;;;;;;;;2090374;28;20167;-54
2022/05/13 01:33:33;;;;;;;5.68;3.10;;;;;;;;;;2090236;28;20159;-53
2022/05/13 01:34:33;;;;;;;3.85;2.95;;;;;;;;;;2089924;28;20217;-56
2022/05/13 01:35:36;;;;;;;4.53;3.42;;;;;;;;;;2090535;28;20179;-54
2022/05/13 01:36:37;;;;;;;3.88;2.55;;;;;;;;;;2090445;28;20163;-55
2022/05/13 01:37:37;;;;;;;4.20;3.08;;;;;;;;;;2090223;28;20207;-55
2022/05/13 01:38:37;;;;;;;3.72;2.78;;;;;;;;;;2088717;28;20183;-57
2022/05/13 01:39:38;;;;;;;4.57;3.05;;;;;;;;;;2081367;28;20173;-58
2022/05/13 01:40:39;;;;;;;3.97;2.90;;;;;;;;;;2082076;28;20186;-55
2022/05/13 01:41:39;;;;;;;5.68;3.05;;;;;;;;;;2081302;28;20168;-56
2022/05/13 01:42:39;;;;;;;3.42;3.13;;;;;;;;;;2081365;28;20179;-52
2022/05/13 01:43:40;;;;;;;3.47;2.90;;;;;;;;;;2081368;28;20160;-59
2022/05/13 01:44:40;;;;;;;4.10;2.97;;;;;;;;;;2081772;28;20176;-55
2022/05/13 01:45:40;;;;;;;2.92;2.72;;;;;;;;;;2082025;28;20172;-57
2022/05/13 01:46:40;;;;;;;3.17;2.65;;;;;;;;;;2081243;28;20164;-54
2022/05/13 01:47:41;;;;;;;4.40;3.45;;;;;;;;;;2081150;28;20262;-55
2022/05/13 01:48:41;;;;;;;5.35;2.97;;;;;;;;;;2082906;28;20190;-57
2022/05/13 01:49:42;;;;;;;5.55;3.00;;;;;;;;;;2089588;28;20167;-57
2022/05/13 01:50:43;;;;;;;3.25;2.80;;;;;;;;;;2089401;28;20180;-53
2022/05/13 01:51:43;;;;;;;3.78;2.97;;;;;;;;;;2081206;28;20263;-52
2022/05/13 01:52:43;;;;;;;4.57;3.55;;;;;;;;;;2089479;28;20661;-53
2022/05/13 01:53:43;;;;;;;3.38;2.53;;;;;;;;;;2090196;28;20266;-59
2022/05/13 01:54:44;;;;;;;3.53;2.67;;;;;;;;;;2089701;28;20176;-55
2022/05/13 01:55:44;;;;;;;6.82;3.35;;;;;;;;;;2089483;28;20190;-57
2022/05/13 01:56:44;;;;;;;3.60;3.30;;;;;;;;;;2089156;28;20516;-55
2022/05/13 01:57:45;;;;;;;4.25;2.97;;;;;;;;;;2090067;28;20194;-57
2022/05/13 01:58:45;;;;;;;5.40;3.05;;;;;;;;;;2090101;28;20233;-53
2022/05/13 01:59:46;;;;;;;6.25;3.38;;;;;;;;;;2084077;28;20685;-54
2022/05/13 02:00:47;;;;;;;4.30;3.10;;;;;;;;;;2081745;28;20161;-50
2022/05/13 02:01:47;;;;;;;6.28;3.00;;;;;;;;;;2088021;28;20180;-53
2022/05/13 02:04:06;;;;;;;5.88;3.22;;;;;;;;;;2089108;28;20167;-56
2022/05/13 02:05:07;;;;;;;4.82;3.30;;;;;;;;;;2089438;28;20565;-54
2022/05/13 02:06:07;;;;;;;4.03;3.72;;;;;;;;;;2095271;28;20258;-58
2022/05/13 02:07:07;;;;;;;4.68;3.40;;;;;;;;;;2095903;28;20174;-54
2022/05/13 02:08:07;;;;;;;3.67;3.17;;;;;;;;;;2086188;28;20175;-53
2022/05/13 02:09:08;;;;;;;4.10;3.55;;;;;;;;;;2090060;28;20164;-59
2022/05/13 02:10:08;;;;;;;4.50;3.70;;;;;;;;;;2082157;28;20294;-53
2022/05/13 02:11:09;;;;;;;3.83;3.53;;;;;;;;;;2081776;28;20168;-56
2022/05/13 02:12:09;;;;;;;5.32;3.40;;;;;;;;;;2081796;28;20176;-57
2022/05/13 02:13:10;;;;;;;4.95;3.15;;;;;;;;;;2081114;28;20172;-59
2022/05/13 02:14:10;;;;;;;5.30;3.50;;;;;;;;;;2080971;28;20175;-56
2022/05/13 02:15:11;;;;;;;3.50;3.20;;;;;;;;;;2081897;28;20200;-52
2022/05/13 02:16:12;;;;;;;3.58;3.03;;;;;;;;;;2081098;28;20663;-61
2022/05/13 02:17:12;;;;;;;4.07;3.60;;;;;;;;;;2081212;28;20681;-54
2022/05/13 02:18:12;;;;;;;5.28;4.07;;;;;;;;;;2081348;28;20176;-58
2022/05/13 02:19:13;;;;;;;3.95;3.47;;;;;;;;;;2081323;28;20172;-54
2022/05/13 02:20:13;;;;;;;7.60;3.80;;;;;;;;;;2089524;28;20184;-55
2022/05/13 02:21:13;;;;;;;4.13;3.72;;;;;;;;;;2089458;28;20193;-54
2022/05/13 02:22:13;;;;;;;5.10;4.05;;;;;;;;;;2090027;28;20279;-56
2022/05/13 02:23:14;;;;;;;5.63;3.45;;;;;;;;;;2089981;28;20167;-58
2022/05/13 02:24:15;;;;;;;4.38;3.67;;;;;;;;;;2089083;28;20179;-55
2022/05/13 02:25:15;;;;;;;3.78;3.47;;;;;;;;;;2081113;28;20788;-52
2022/05/13 02:26:16;;;;;;;5.10;3.78;;;;;;;;;;2081844;28;20195;-53
2022/05/13 02:27:16;;;;;;;3.78;3.40;;;;;;;;;;2089449;28;20262;-56
2022/05/13 02:28:17;;;;;;;3.70;3.40;;;;;;;;;;2081190;28;20172;-57
2022/05/13 02:29:17;;;;;;;4.80;3.80;;;;;;;;;;2080518;28;20208;-53
2022/05/13 02:30:21;;;;;;;3.45;3.15;;;;;;;;;;2081793;28;20199;-53
2022/05/13 02:31:21;;;;;;;4.75;3.88;;;;;;;;;;2084665;28;20175;-55
2022/05/13 02:32:21;;;;;;;4.53;3.70;;;;;;;;;;2087049;28;20191;-56
2022/05/13 02:33:22;;;;;;;6.70;3.72;;;;;;;;;;2080938;28;20172;-55
2022/05/13 02:34:22;;;;;;;4.38;3.63;;;;;;;;;;2080745;28;20584;-57
2022/05/13 02:35:23;;;;;;;5.30;3.90;;;;;;;;;;2081209;28;20543;-53
2022/05/13 02:36:23;;;;;;;4.85;3.72;;;;;;;;;;2081062;28;20177;-55
2022/05/13 02:37:24;;;;;;;5.35;3.40;;;;;;;;;;2081102;28;20164;-55
2022/05/13 02:38:25;;;;;;;5.35;3.50;;;;;;;;;;2081154;28;20645;-53
2022/05/13 02:39:25;;;;;;;5.15;3.65;;;;;;;;;;2083717;28;20246;-59
2022/05/13 02:41:11;;;;;;;6.82;4.10;;;;;;;;;;2090571;28;20577;-59
2022/05/13 02:41:46;;;;;;;7.13;3.58;;;;;;;;;;2084565;28;20234;-56
2022/05/13 02:42:46;;;;;;;4.95;3.80;;;;;;;;;;2090037;28;20170;-59
2022/05/13 02:43:50;;;;;;;6.47;3.92;;;;;;;;;;2090491;28;20210;-60
2022/05/13 02:44:51;;;;;;;8.25;3.78;;;;;;;;;;2089961;28;20186;-56
2022/05/13 02:45:51;;;;;;;4.38;3.95;;;;;;;;;;2090577;28;20179;-57
2022/05/13 02:46:52;;;;;;;7.75;4.15;;;;;;;;;;2090378;28;20168;-57
2022/05/13 02:47:52;;;;;;;5.00;3.55;;;;;;;;;;2089910;28;20214;-51
2022/05/13 02:48:53;;;;;;;4.53;3.83;;;;;;;;;;2089197;28;20213;-55
2022/05/13 02:51:13;;;;;;;5.22;4.30;;;;;;;;;;2089695;28;20160;-55
2022/05/13 02:52:13;;;;;;;4.10;3.47;;;;;;;;;;2089702;28;20171;-54
2022/05/13 02:53:14;;;;;;;4.57;4.03;;;;;;;;;;2089148;28;20175;-55
2022/05/13 02:54:15;;;;;;;5.68;3.90;;;;;;;;;;2088512;28;20497;-53
2022/05/13 02:55:16;;;;;;;6.65;3.67;;;;;;;;;;2081617;28;20266;-55
2022/05/13 02:56:17;;;;;;;4.57;4.18;;;;;;;;;;2087439;28;20175;-53
2022/05/13 02:57:17;;;;;;;4.38;3.83;;;;;;;;;;2088955;28;20174;-52
2022/05/13 02:58:17;;;;;;;5.50;3.78;;;;;;;;;;2089293;28;20629;-55
2022/05/13 02:59:17;;;;;;;5.97;4.07;;;;;;;;;;2087322;28;20584;-55
2022/05/13 03:00:18;;;;;;;5.63;3.50;;;;;;;;;;2081040;28;20187;-54
2022/05/13 03:01:19;;;;;;;8.68;3.90;;;;;;;;;;2074585;28;20226;-57
2022/05/13 03:02:19;;;;;;;6.25;4.18;;;;;;;;;;2076885;28;20210;-56
2022/05/13 03:03:19;;;;;;;9.13;4.72;;;;;;;;;;2083917;28;20655;-52
2022/05/13 03:04:21;;;;;;;4.63;4.20;;;;;;;;;;2084193;28;20632;-57
2022/05/13 03:05:22;;;;;;;6.07;4.18;;;;;;;;;;2088929;28;20217;-56
2022/05/13 03:06:22;;;;;;;3.88;3.50;;;;;;;;;;2081865;28;20569;-53
2022/05/13 03:07:22;;;;;;;4.30;3.90;;;;;;;;;;2080644;28;20687;-55
2022/05/13 03:08:22;;;;;;;7.82;4.50;;;;;;;;;;2084210;28;20267;-59
2022/05/13 03:09:23;;;;;;;5.63;4.03;;;;;;;;;;2081464;28;20256;-59
2022/05/13 03:10:23;;;;;;;6.10;4.68;;;;;;;;;;2081529;28;20589;-55
2022/05/13 03:11:24;;;;;;;4.50;4.10;;;;;;;;;;2081428;28;20168;-55
2022/05/13 03:12:24;;;;;;;6.97;4.15;;;;;;;;;;2082817;28;20187;-58
2022/05/13 03:13:24;;;;;;;5.72;3.97;;;;;;;;;;2089660;28;20621;-57
2022/05/13 03:14:25;;;;;;;4.25;3.50;;;;;;;;;;2088759;28;20237;-55
2022/05/13 03:15:25;;;;;;;6.72;4.10;;;;;;;;;;2089239;28;20730;-57
2022/05/13 03:16:26;;;;;;;4.28;3.97;;;;;;;;;;2089935;28;20160;-54
2022/05/13 03:17:26;;;;;;;4.50;3.97;;;;;;;;;;2089866;28;20246;-51
2022/05/13 03:18:27;;;;;;;4.70;4.15;;;;;;;;;;2089631;28;20191;-58
2022/05/13 03:19:27;;;;;;;4.45;4.00;;;;;;;;;;2089805;28;20164;-54
2022/05/13 03:20:27;;;;;;;8.57;4.30;;;;;;;;;;2089223;28;20703;-56
2022/05/13 03:21:27;;;;;;;4.53;3.97;;;;;;;;;;2089158;28;20587;-58
2022/05/13 03:22:28;;;;;;;5.47;4.30;;;;;;;;;;2083930;28;20256;-56
2022/05/13 03:23:29;;;;;;;4.30;4.00;;;;;;;;;;2081697;28;20195;-57
2022/05/13 03:24:29;;;;;;;5.45;3.80;;;;;;;;;;2081151;28;20164;-55
2022/05/13 03:25:29;;;;;;;4.65;4.22;;;;;;;;;;2081777;28;20168;-55
2022/05/13 03:26:29;;;;;;;7.18;4.15;;;;;;;;;;2080712;28;20819;-55
2022/05/13 03:27:31;;;;;;;7.95;4.35;;;;;;;;;;2080792;28;20560;-55
2022/05/13 03:28:32;;;;;;;4.40;4.00;;;;;;;;;;2081541;28;20161;-55
2022/05/13 03:29:32;;;;;;;5.03;3.80;;;;;;;;;;2080953;28;20180;-59
2022/05/13 03:30:32;;;;;;;9.60;4.28;;;;;;;;;;2080863;28;20161;-53
2022/05/13 03:31:34;;;;;;;4.00;3.60;;;;;;;;;;2081375;28;20176;-56
2022/05/13 03:32:34;;;;;;;4.93;4.25;;;;;;;;;;2088083;28;20172;-56
2022/05/13 03:33:35;;;;;;;5.60;4.00;;;;;;;;;;2089689;28;20178;-56
2022/05/13 03:34:38;;;;;;;4.30;3.95;;;;;;;;;;2089639;28;20195;-56
2022/05/13 03:35:39;;;;;;;5.90;4.22;;;;;;;;;;2089978;28;20164;-57
2022/05/13 03:36:39;;;;;;;5.70;3.75;;;;;;;;;;2089808;28;20197;-56
2022/05/13 03:37:40;;;;;;;5.88;4.35;;;;;;;;;;2089853;28;20199;-57
2022/05/13 03:38:40;;;;;;;7.75;4.00;;;;;;;;;;2089540;28;20193;-55
2022/05/13 03:39:41;;;;;;;5.65;4.35;;;;;;;;;;2090169;28;20271;-59
2022/05/13 03:40:41;;;;;;;6.88;4.13;;;;;;;;;;2091177;28;20535;-55
2022/05/13 03:41:42;;;;;;;4.18;3.55;;;;;;;;;;2090032;28;20164;-57
2022/05/13 03:42:42;;;;;;;4.43;4.03;;;;;;;;;;2082123;28;20711;-54
2022/05/13 03:43:43;;;;;;;6.20;3.50;;;;;;;;;;2082809;28;20179;-58
2022/05/13 03:44:43;;;;;;;5.85;3.88;;;;;;;;;;2089241;28;20192;-59
2022/05/13 03:45:43;;;;;;;7.57;4.35;;;;;;;;;;2089659;28;20194;-55
2022/05/13 03:46:44;;;;;;;4.97;3.90;;;;;;;;;;2089656;28;20168;-55
2022/05/13 03:47:44;;;;;;;4.22;3.88;;;;;;;;;;2082026;28;20227;-53
2022/05/13 03:48:45;;;;;;;5.18;3.50;;;;;;;;;;2089004;28;20177;-56
2022/05/13 03:49:45;;;;;;;7.80;3.85;;;;;;;;;;2089143;28;20211;-55
2022/05/13 03:50:46;;;;;;;4.22;3.78;;;;;;;;;;2080644;28;20175;-59
2022/05/13 03:51:46;;;;;;;3.70;3.40;;;;;;;;;;2073926;28;20645;-54
2022/05/13 03:52:46;;;;;;;4.47;3.58;;;;;;;;;;2081636;28;20180;-57
2022/05/13 03:53:47;;;;;;;5.65;4.07;;;;;;;;;;2081410;28;20279;-54
2022/05/13 03:54:47;;;;;;;7.43;3.58;;;;;;;;;;2080899;28;20595;-55
2022/05/13 03:55:47;;;;;;;4.00;3.70;;;;;;;;;;2082850;28;20210;-54
2022/05/13 03:56:47;;;;;;;4.63;4.22;;;;;;;;;;2088479;28;20241;-56
2022/05/13 03:57:47;;;;;;;4.78;3.90;;;;;;;;;;2089624;28;20256;-57
2022/05/13 03:58:48;;;;;;;7.38;3.75;;;;;;;;;;2089695;28;20172;-56
2022/05/13 03:59:48;;;;;;;4.82;4.07;;;;;;;;;;2089489;28;20209;-53
2022/05/13 04:00:49;;;;;;;5.75;4.10;;;;;;;;;;2089563;28;20640;-56
2022/05/13 04:01:49;;;;;;;4.57;3.72;;;;;;;;;;2089242;28;20764;-54
2022/05/13 04:02:50;;;;;;;4.13;3.72;;;;;;;;;;2090644;28;20580;-56
2022/05/13 04:03:50;;;;;;;6.15;4.03;;;;;;;;;;2091015;28;20656;-56
2022/05/13 04:08:56;;;;;;;5.43;3.75;;;;;;;;;;2091118;28;20761;-57
2022/05/13 04:09:56;;;;;;;4.90;3.90;;;;;;;;;;2090900;28;20191;-55
2022/05/13 04:10:57;;;;;;;8.15;3.90;;;;;;;;;;2091211;28;20221;-56
2022/05/13 04:16:06;;;;;;;5.22;4.03;;;;;;;;;;2091151;28;20156;-54
2022/05/13 04:17:06;;;;;;;4.50;3.70;;;;;;;;;;2088770;28;20703;-55
2022/05/13 04:18:06;;;;;;;6.78;4.03;;;;;;;;;;2082061;28;20168;-52
2022/05/13 04:19:07;;;;;;;4.63;2.92;;;;;;;;;;2082413;28;20219;-57
2022/05/13 04:20:07;;;;;;;4.53;3.53;;;;;;;;;;2082577;28;20176;-56
2022/05/13 04:21:10;;;;;;;7.28;3.78;;;;;;;;;;2082897;28;20192;-55
2022/05/13 04:22:13;;;;;;;7.38;3.85;;;;;;;;;;2082691;28;20266;-54
2022/05/13 04:23:13;;;;;;;4.03;3.67;;;;;;;;;;2082457;28;20171;-53
2022/05/13 04:24:16;;;;;;;4.43;3.65;;;;;;;;;;2081705;28;20209;-53
2022/05/13 04:25:17;;;;;;;6.03;3.60;;;;;;;;;;2084782;28;20185;-54
2022/05/13 04:26:18;;;;;;;5.80;3.53;;;;;;;;;;2090623;28;20726;-56
2022/05/13 04:27:19;;;;;;;3.70;3.40;;;;;;;;;;2090600;28;20188;-54
2022/05/13 04:28:19;;;;;;;3.83;3.40;;;;;;;;;;2090510;28;20211;-55
2022/05/13 04:29:19;;;;;;;3.95;3.55;;;;;;;;;;2090793;28;20179;-54
2022/05/13 04:30:20;;;;;;;4.50;3.53;;;;;;;;;;2090875;28;20187;-54
2022/05/13 04:31:21;;;;;;;3.60;3.30;;;;;;;;;;2091647;28;20250;-55
2022/05/13 04:32:21;;;;;;;6.13;3.53;;;;;;;;;;2091574;28;20214;-62
2022/05/13 04:33:22;;;;;;;4.53;3.42;;;;;;;;;;2091838;28;20234;-55
2022/05/13 04:34:22;;;;;;;3.97;3.63;;;;;;;;;;2091409;28;20547;-57
2022/05/13 04:35:22;;;;;;;3.88;3.30;;;;;;;;;;2087975;28;20169;-56
2022/05/13 04:36:23;;;;;;;5.65;3.90;;;;;;;;;;2083509;28;20246;-55
2022/05/13 04:37:25;;;;;;;4.28;3.40;;;;;;;;;;2083275;28;20649;-54
2022/05/13 04:38:25;;;;;;;6.40;3.50;;;;;;;;;;2083096;28;20169;-56
2022/05/13 04:39:25;;;;;;;6.07;3.40;;;;;;;;;;2084267;28;20238;-53
2022/05/13 04:40:26;;;;;;;3.92;3.40;;;;;;;;;;2089480;28;20176;-54
2022/05/13 04:42:49;;;;;;;5.03;3.50;;;;;;;;;;2089080;28;20190;-57
2022/05/13 04:43:49;;;;;;;5.07;3.13;;;;;;;;;;2086606;28;20607;-54
2022/05/13 04:44:49;;;;;;;6.50;3.47;;;;;;;;;;2091250;28;20302;-55
2022/05/13 04:45:50;;;;;;;3.95;3.22;;;;;;;;;;2091658;28;20174;-59
2022/05/13 04:46:50;;;;;;;6.80;3.83;;;;;;;;;;2091298;28;20187;-53
2022/05/13 04:49:13;;;;;;;4.88;3.65;;;;;;;;;;2090617;28;21029;-60
2022/05/13 04:50:13;;;;;;;5.68;3.70;;;;;;;;;;2090897;28;20195;-55
2022/05/13 04:51:14;;;;;;;5.60;3.63;;;;;;;;;;2091615;28;20676;-55
2022/05/13 04:52:14;;;;;;;5.60;3.58;;;;;;;;;;2091271;28;20183;-57
2022/05/13 04:53:16;;;;;;;3.90;3.55;;;;;;;;;;2091648;28;20171;-54
2022/05/13 04:54:16;;;;;;;5.93;4.18;;;;;;;;;;2090427;28;20178;-58
2022/05/13 04:55:16;;;;;;;6.47;3.70;;;;;;;;;;2090941;28;20164;-54
2022/05/13 04:56:17;;;;;;;4.68;3.60;;;;;;;;;;2091102;28;20160;-57
2022/05/13 04:57:17;;;;;;;4.78;3.70;;;;;;;;;;2091200;28;20190;-57
2022/05/13 04:58:18;;;;;;;5.07;3.70;;;;;;;;;;2091220;28;20178;-55
2022/05/13 04:59:18;;;;;;;6.40;3.65;;;;;;;;;;2090238;28;20171;-56
2022/05/13 05:00:18;;;;;;;4.63;3.50;;;;;;;;;;2086069;28;20180;-56
2022/05/13 05:01:19;;;;;;;4.57;3.78;;;;;;;;;;2085596;28;20176;-54
2022/05/13 05:02:19;;;;;;;4.15;3.85;;;;;;;;;;2090879;28;20275;-56
2022/05/13 05:03:21;;;;;;;4.43;3.67;;;;;;;;;;2090243;28;20246;-56
2022/05/13 05:04:21;;;;;;;8.02;3.83;;;;;;;;;;2087237;28;20179;-56
2022/05/13 05:05:22;;;;;;;7.22;3.75;;;;;;;;;;2082220;28;20211;-56
2022/05/13 05:06:22;;;;;;;3.97;3.55;;;;;;;;;;2092575;28;20180;-65
2022/05/13 05:07:22;;;;;;;4.18;3.80;;;;;;;;;;2087267;28;20267;-53
2022/05/13 05:08:23;;;;;;;4.18;3.60;;;;;;;;;;2084753;28;20180;-56
2022/05/13 05:09:24;;;;;;;4.05;3.53;;;;;;;;;;2082232;28;20176;-56
2022/05/13 05:10:25;;;;;;;3.92;3.55;;;;;;;;;;2082126;28;20761;-56
2022/05/13 05:11:25;;;;;;;6.82;4.30;;;;;;;;;;2082614;28;20184;-55
2022/05/13 05:12:30;;;;;;;5.65;3.58;;;;;;;;;;2082761;28;20200;-57
2022/05/13 05:13:35;;;;;;;4.97;3.90;;;;;;;;;;2081465;28;20188;-58
2022/05/13 05:14:35;;;;;;;4.63;3.60;;;;;;;;;;2081428;28;20295;-52
2022/05/13 05:15:38;;;;;;;4.30;3.65;;;;;;;;;;2082348;28;20214;-53
2022/05/13 05:16:39;;;;;;;8.45;3.50;;;;;;;;;;2082261;28;20218;-52
2022/05/13 05:17:39;;;;;;;5.93;4.22;;;;;;;;;;2087512;28;20184;-49
2022/05/13 05:18:40;;;;;;;6.35;4.15;;;;;;;;;;2089834;28;20172;-54
2022/05/13 05:19:40;;;;;;;5.43;3.95;;;;;;;;;;2090205;28;20176;-56
2022/05/13 05:20:41;;;;;;;6.40;3.72;;;;;;;;;;2089102;28;20167;-56
2022/05/13 05:21:41;;;;;;;6.15;3.67;;;;;;;;;;2086717;28;20637;-56
2022/05/13 05:22:44;;;;;;;7.10;4.15;;;;;;;;;;2088883;28;20698;-57
2022/05/13 05:23:44;;;;;;;7.95;4.22;;;;;;;;;;2088913;28;20176;-55
2022/05/13 05:24:46;;;;;;;6.57;3.97;;;;;;;;;;2088380;28;20164;-56
2022/05/13 05:25:46;;;;;;;6.13;4.20;;;;;;;;;;2086494;28;20676;-54
2022/05/13 05:26:46;;;;;;;4.78;3.88;;;;;;;;;;2082907;28;20172;-57
2022/05/13 05:27:47;;;;;;;3.95;3.60;;;;;;;;;;2090411;28;20195;-61
2022/05/13 05:28:51;;;;;;;4.82;3.72;;;;;;;;;;2089726;28;20732;-58
2022/05/13 05:29:51;;;;;;;4.85;4.20;;;;;;;;;;2089840;28;20682;-58
2022/05/13 05:30:52;;;;;;;6.53;3.78;;;;;;;;;;2090548;28;20214;-60
2022/05/13 05:31:52;;;;;;;6.95;4.10;;;;;;;;;;2090586;28;20656;-63
2022/05/13 05:32:52;;;;;;;7.60;4.22;;;;;;;;;;2085025;28;20199;-54
2022/05/13 05:33:52;;;;;;;7.47;4.25;;;;;;;;;;2081972;28;20526;-59
2022/05/13 05:34:53;;;;;;;10.05;4.25;;;;;;;;;;2082929;28;20171;-60
2022/05/13 05:35:53;;;;;;;7.35;4.32;;;;;;;;;;2088643;28;20657;-59
2022/05/13 05:36:53;;;;;;;10.05;3.90;;;;;;;;;;2090300;28;20199;-57
2022/05/13 05:37:54;;;;;;;4.22;3.80;;;;;;;;;;2090701;28;20187;-61
2022/05/13 05:38:54;;;;;;;8.82;4.72;;;;;;;;;;2090562;28;20199;-58
2022/05/13 05:39:54;;;;;;;7.90;4.20;;;;;;;;;;2090646;28;20259;-60
2022/05/13 05:40:55;;;;;;;4.28;3.78;;;;;;;;;;2090598;28;20172;-55
2022/05/13 05:41:55;;;;;;;4.72;3.75;;;;;;;;;;2090619;28;20233;-51
2022/05/13 05:42:56;;;;;;;8.13;4.28;;;;;;;;;;2099047;28;20186;-56
2022/05/13 05:43:56;;;;;;;7.50;4.65;;;;;;;;;;2098996;28;20205;-56
2022/05/13 05:44:56;;;;;;;8.07;3.78;;;;;;;;;;2098773;28;20182;-62
2022/05/13 05:45:58;;;;;;;5.60;4.35;;;;;;;;;;2099258;28;20636;-61
2022/05/13 05:46:58;;;;;;;5.88;3.70;;;;;;;;;;2094435;28;20168;-59
2022/05/13 05:47:58;;;;;;;5.22;3.63;;;;;;;;;;2091460;28;20211;-62
2022/05/13 05:48:58;;;;;;;4.75;3.75;;;;;;;;;;2086113;28;20183;-65
2022/05/13 05:49:59;;;;;;;5.88;4.45;;;;;;;;;;2092074;28;20208;-62
2022/05/13 05:50:59;;;;;;;4.30;3.90;;;;;;;;;;2085685;28;20186;-61
2022/05/13 05:52:00;;;;;;;7.18;4.22;;;;;;;;;;2083376;28;20191;-59
2022/05/13 05:53:01;;;;;;;6.50;3.88;;;;;;;;;;2083568;28;20211;-59
2022/05/13 05:58:02;;;;;;;5.35;3.92;;;;;;;;;;2082970;28;20227;-60
2022/05/13 05:59:03;;;;;;;6.10;3.78;;;;;;;;;;2083016;28;20576;-59
2022/05/13 06:00:06;;;;;;;8.30;4.43;;;;;;;;;;2082902;28;20230;-60
2022/05/13 06:01:07;;;;;;;7.65;4.15;;;;;;;;;;2083157;28;20184;-60
2022/05/13 06:02:07;;;;;;;9.00;3.95;;;;;;;;;;2082268;28;20187;-57
2022/05/13 06:03:07;;;;;;;7.32;4.20;;;;;;;;;;2082405;28;20574;-59
2022/05/13 06:04:08;;;;;;;7.72;4.00;;;;;;;;;;2082002;28;20206;-60
2022/05/13 06:05:08;;;;;;;8.15;4.65;;;;;;;;;;2074422;28;20770;-60
2022/05/13 06:06:12;;;;;;;8.18;4.22;;;;;;;;;;2085452;28;20389;-60
2022/05/13 06:07:13;;;;;;;6.80;4.43;;;;;;;;;;2099285;28;20159;-59
2022/05/13 06:08:14;;;;;;;5.88;4.60;;;;;;;;;;2099020;28;20187;-59
2022/05/13 06:09:14;;;;;;;6.72;4.10;;;;;;;;;;2091655;28;20171;-58
2022/05/13 06:10:14;;;;;;;7.10;4.35;;;;;;;;;;2099487;28;20264;-60
2022/05/13 06:11:15;;;;;;;8.10;4.40;;;;;;;;;;2100362;28;20240;-61
2022/05/13 06:12:16;;;;;;;9.25;4.40;;;;;;;;;;2100810;28;20175;-60
2022/05/13 06:13:16;;;;;;;9.20;4.75;;;;;;;;;;2091416;28;20226;-60
2022/05/13 06:14:17;;;;;;;9.82;4.47;;;;;;;;;;2091213;28;20159;-59
2022/05/13 06:15:17;;;;;;;7.97;4.63;;;;;;;;;;2099990;28;20175;-59
2022/05/13 06:16:18;;;;;;;7.03;4.13;;;;;;;;;;2100290;28;20163;-60
2022/05/13 06:17:18;;;;;;;11.23;4.60;;;;;;;;;;2099254;28;20170;-60
2022/05/13 06:18:18;;;;;;;6.30;4.47;;;;;;;;;;2099474;28;20163;-61
2022/05/13 06:19:19;;;;;;;8.40;4.75;;;;;;;;;;2099866;28;20236;-60
2022/05/13 06:20:23;;;;;;;7.80;4.68;;;;;;;;;;2099504;28;20178;-59
2022/05/13 06:21:24;;;;;;;5.93;4.00;;;;;;;;;;2099741;28;20258;-60
2022/05/13 06:22:24;;;;;;;5.05;4.32;;;;;;;;;;2099632;28;20179;-60
2022/05/13 06:23:25;;;;;;;8.43;5.10;;;;;;;;;;2099365;28;20175;-59
2022/05/13 06:24:25;;;;;;;8.35;4.55;;;;;;;;;;2098571;28;20171;-60
2022/05/13 06:25:25;;;;;;;4.30;3.80;;;;;;;;;;2098582;28;20175;-58